<?xml version="1.0" encoding="UTF-8" standalone="no" ?>
<gpx xmlns="http://www.topografix.com/GPX/1/1" xmlns:xsi="http://www.w3.org/2001/XMLSchema-instance" xsi:schemaLocation="http://www.topografix.com/GPX/1/1 http://www.topografix.com/GPX/1/1/gpx.xsd" version="1.1" creator="VisuGPX - https://www.visugpx.com">
  <metadata>
    <name>34 SPOY CIRCUIT DE DAMPIERRE </name>
    <desc><![CDATA[Parcours familiale parfait pour connaître le GRAVEL ]]></desc>
  </metadata>
  <trk>
    <name><![CDATA[34. Circuit bleu, Spoy-17237881]]></name>
    <extensions>
      <line xmlns="http://www.topografix.com/GPX/gpx_style/0/2">
        <color>0000FF</color>
        <width>4</width>
      </line>
    </extensions>
    <trkseg>
      <trkpt lat="48.22816" lon="4.61984">
        <ele>178</ele>
        <time>2024-10-11T12:24:27Z</time>
      </trkpt>
      <trkpt lat="48.22803" lon="4.61924">
        <ele>182</ele>
        <time>2024-10-11T12:24:34Z</time>
      </trkpt>
      <trkpt lat="48.22778" lon="4.61841">
        <ele>189</ele>
        <time>2024-10-11T12:24:45Z</time>
      </trkpt>
      <trkpt lat="48.22713" lon="4.6185">
        <ele>194</ele>
        <time>2024-10-11T12:24:57Z</time>
      </trkpt>
      <trkpt lat="48.22565" lon="4.61905">
        <ele>208</ele>
        <time>2024-10-11T12:25:24Z</time>
      </trkpt>
      <trkpt lat="48.22391" lon="4.62016">
        <ele>206</ele>
        <time>2024-10-11T12:25:58Z</time>
      </trkpt>
      <trkpt lat="48.22177" lon="4.62119">
        <ele>198</ele>
        <time>2024-10-11T12:26:38Z</time>
      </trkpt>
      <trkpt lat="48.2216" lon="4.62122">
        <ele>197</ele>
        <time>2024-10-11T12:26:41Z</time>
      </trkpt>
      <trkpt lat="48.22116" lon="4.6212">
        <ele>197</ele>
        <time>2024-10-11T12:26:49Z</time>
      </trkpt>
      <trkpt lat="48.22092" lon="4.62106">
        <ele>199</ele>
        <time>2024-10-11T12:26:53Z</time>
      </trkpt>
      <trkpt lat="48.22055" lon="4.62097">
        <ele>199</ele>
        <time>2024-10-11T12:27:00Z</time>
      </trkpt>
      <trkpt lat="48.21993" lon="4.62074">
        <ele>199</ele>
        <time>2024-10-11T12:27:11Z</time>
      </trkpt>
      <trkpt lat="48.21919" lon="4.62035">
        <ele>201</ele>
        <time>2024-10-11T12:27:25Z</time>
      </trkpt>
      <trkpt lat="48.21902" lon="4.62023">
        <ele>201</ele>
        <time>2024-10-11T12:27:28Z</time>
      </trkpt>
      <trkpt lat="48.21876" lon="4.61987">
        <ele>204</ele>
        <time>2024-10-11T12:27:35Z</time>
      </trkpt>
      <trkpt lat="48.21818" lon="4.61861">
        <ele>209</ele>
        <time>2024-10-11T12:27:53Z</time>
      </trkpt>
      <trkpt lat="48.21789" lon="4.61749">
        <ele>212</ele>
        <time>2024-10-11T12:28:07Z</time>
      </trkpt>
      <trkpt lat="48.21766" lon="4.61561">
        <ele>212</ele>
        <time>2024-10-11T12:28:30Z</time>
      </trkpt>
      <trkpt lat="48.21718" lon="4.61328">
        <ele>213</ele>
        <time>2024-10-11T12:28:59Z</time>
      </trkpt>
      <trkpt lat="48.21704" lon="4.61223">
        <ele>212</ele>
        <time>2024-10-11T12:29:11Z</time>
      </trkpt>
      <trkpt lat="48.21698" lon="4.61109">
        <ele>210</ele>
        <time>2024-10-11T12:29:25Z</time>
      </trkpt>
      <trkpt lat="48.217" lon="4.61099">
        <ele>210</ele>
        <time>2024-10-11T12:29:26Z</time>
      </trkpt>
      <trkpt lat="48.2171" lon="4.6109">
        <ele>212</ele>
        <time>2024-10-11T12:29:28Z</time>
      </trkpt>
      <trkpt lat="48.21789" lon="4.61053">
        <ele>229</ele>
        <time>2024-10-11T12:29:43Z</time>
      </trkpt>
      <trkpt lat="48.2179" lon="4.61027">
        <ele>230</ele>
        <time>2024-10-11T12:29:46Z</time>
      </trkpt>
      <trkpt lat="48.2177" lon="4.60963">
        <ele>232</ele>
        <time>2024-10-11T12:29:54Z</time>
      </trkpt>
      <trkpt lat="48.21777" lon="4.60947">
        <ele>235</ele>
        <time>2024-10-11T12:29:57Z</time>
      </trkpt>
      <trkpt lat="48.21804" lon="4.6093">
        <ele>240</ele>
        <time>2024-10-11T12:30:02Z</time>
      </trkpt>
      <trkpt lat="48.21866" lon="4.60901">
        <ele>250</ele>
        <time>2024-10-11T12:30:13Z</time>
      </trkpt>
      <trkpt lat="48.21919" lon="4.6098">
        <ele>254</ele>
        <time>2024-10-11T12:30:27Z</time>
      </trkpt>
      <trkpt lat="48.2193" lon="4.60986">
        <ele>255</ele>
        <time>2024-10-11T12:30:29Z</time>
      </trkpt>
      <trkpt lat="48.21966" lon="4.60993">
        <ele>258</ele>
        <time>2024-10-11T12:30:35Z</time>
      </trkpt>
      <trkpt lat="48.22236" lon="4.60953">
        <ele>272</ele>
        <time>2024-10-11T12:31:24Z</time>
      </trkpt>
      <trkpt lat="48.22346" lon="4.60917">
        <ele>269</ele>
        <time>2024-10-11T12:31:44Z</time>
      </trkpt>
      <trkpt lat="48.22372" lon="4.60905">
        <ele>267</ele>
        <time>2024-10-11T12:31:48Z</time>
      </trkpt>
      <trkpt lat="48.22379" lon="4.60904">
        <ele>267</ele>
        <time>2024-10-11T12:31:50Z</time>
      </trkpt>
      <trkpt lat="48.22386" lon="4.6091">
        <ele>266</ele>
        <time>2024-10-11T12:31:51Z</time>
      </trkpt>
      <trkpt lat="48.22494" lon="4.61159">
        <ele>247</ele>
        <time>2024-10-11T12:32:26Z</time>
      </trkpt>
      <trkpt lat="48.22509" lon="4.61203">
        <ele>245</ele>
        <time>2024-10-11T12:32:32Z</time>
      </trkpt>
      <trkpt lat="48.22535" lon="4.61321">
        <ele>239</ele>
        <time>2024-10-11T12:32:47Z</time>
      </trkpt>
      <trkpt lat="48.22549" lon="4.61367">
        <ele>236</ele>
        <time>2024-10-11T12:32:53Z</time>
      </trkpt>
      <trkpt lat="48.22638" lon="4.61559">
        <ele>219</ele>
        <time>2024-10-11T12:33:21Z</time>
      </trkpt>
      <trkpt lat="48.22656" lon="4.61642">
        <ele>215</ele>
        <time>2024-10-11T12:33:31Z</time>
      </trkpt>
      <trkpt lat="48.22698" lon="4.61745">
        <ele>205</ele>
        <time>2024-10-11T12:33:45Z</time>
      </trkpt>
      <trkpt lat="48.22704" lon="4.61768">
        <ele>202</ele>
        <time>2024-10-11T12:33:48Z</time>
      </trkpt>
      <trkpt lat="48.2271" lon="4.61825">
        <ele>197</ele>
        <time>2024-10-11T12:33:55Z</time>
      </trkpt>
      <trkpt lat="48.22723" lon="4.61835">
        <ele>194</ele>
        <time>2024-10-11T12:33:58Z</time>
      </trkpt>
      <trkpt lat="48.22768" lon="4.61829">
        <ele>190</ele>
        <time>2024-10-11T12:34:06Z</time>
      </trkpt>
      <trkpt lat="48.22782" lon="4.61835">
        <ele>190</ele>
        <time>2024-10-11T12:34:08Z</time>
      </trkpt>
      <trkpt lat="48.22803" lon="4.61902">
        <ele>184</ele>
        <time>2024-10-11T12:34:17Z</time>
      </trkpt>
      <trkpt lat="48.22811" lon="4.61942">
        <ele>181</ele>
        <time>2024-10-11T12:34:22Z</time>
      </trkpt>
      <trkpt lat="48.22801" lon="4.61957">
        <ele>180</ele>
        <time>2024-10-11T12:34:25Z</time>
      </trkpt>
      <trkpt lat="48.2282" lon="4.61991">
        <ele>178</ele>
        <time>2024-10-11T12:34:30Z</time>
      </trkpt>
    </trkseg>
  </trk>
</gpx>